createdAt,value
2022-11-07T00:02:24.171Z,64.13
2022-11-07T00:05:13.361Z,64.13
2022-11-07T00:08:01.115Z,63.87
2022-11-07T00:10:48.665Z,63.92
2022-11-07T00:13:41.239Z,64.05
2022-11-07T00:16:29.474Z,63.91
2022-11-07T00:19:19.884Z,64.04
2022-11-07T00:22:09.123Z,63.91
2022-11-07T00:24:56.437Z,64.11
2022-11-07T00:27:44.152Z,64.12
2022-11-07T00:30:31.638Z,64.06
2022-11-07T00:33:19.362Z,63.96
2022-11-07T00:36:08.424Z,64.11
2022-11-07T00:38:57.280Z,64.11
2022-11-07T00:41:44.496Z,64.00
2022-11-07T00:44:32.219Z,64.16
2022-11-07T00:47:19.911Z,63.92
2022-11-07T00:50:09.221Z,64.03
2022-11-07T00:52:59.302Z,63.90
2022-11-07T00:55:48.267Z,63.88
2022-11-07T00:58:36.454Z,64.17
2022-11-07T01:01:27.527Z,64.04
2022-11-07T01:04:33.140Z,63.81
2022-11-07T01:07:20.801Z,64.15
2022-11-07T01:10:09.581Z,64.01
2022-11-07T01:12:58.915Z,64.15
2022-11-07T01:15:46.417Z,64.09
2022-11-07T01:18:34.189Z,63.80
2022-11-07T01:21:22.225Z,63.74
2022-11-07T01:24:12.055Z,63.71
2022-11-07T01:26:59.792Z,63.60
2022-11-07T01:29:48.646Z,63.64
2022-11-07T01:32:36.088Z,63.67
2022-11-07T01:35:23.741Z,63.70
2022-11-07T01:38:11.398Z,63.67
2022-11-07T01:41:16.693Z,63.86
2022-11-07T01:44:44.868Z,63.63
2022-11-07T01:47:38.915Z,63.83
2022-11-07T01:50:27.913Z,64.00
2022-11-07T01:53:15.635Z,63.83
2022-11-07T01:56:03.939Z,63.96
2022-11-07T01:58:52.009Z,63.86
2022-11-07T02:01:39.610Z,64.18
2022-11-07T02:04:31.993Z,64.00
2022-11-07T02:07:22.801Z,64.16
2022-11-07T02:10:12.429Z,64.11
2022-11-07T02:13:01.509Z,63.93
2022-11-07T02:15:49.176Z,64.32
2022-11-07T02:18:38.546Z,64.26
2022-11-07T02:21:38.200Z,64.39
2022-11-07T02:24:32.806Z,64.36
2022-11-07T02:27:25.688Z,64.46
2022-11-07T02:30:17.284Z,64.45
2022-11-07T02:33:05.279Z,64.40
2022-11-07T02:35:55.520Z,64.16
2022-11-07T02:38:43.644Z,64.25
2022-11-07T02:41:36.240Z,64.34
2022-11-07T02:44:24.067Z,64.47
2022-11-07T02:47:11.427Z,64.66
2022-11-07T02:49:59.043Z,64.77
2022-11-07T02:52:46.718Z,64.69
2022-11-07T02:55:34.138Z,64.70
2022-11-07T02:58:23.249Z,64.79
2022-11-07T03:01:12.514Z,64.53
2022-11-07T03:04:00.549Z,64.75
2022-11-07T03:06:48.221Z,64.61
2022-11-07T03:09:35.646Z,64.87
2022-11-07T03:12:22.985Z,64.81
2022-11-07T03:15:13.579Z,64.89
2022-11-07T03:18:00.962Z,64.71
2022-11-07T03:20:48.468Z,64.78
2022-11-07T03:23:37.889Z,64.75
2022-11-07T03:26:25.389Z,64.96
2022-11-07T03:29:12.983Z,64.88
2022-11-07T03:32:01.864Z,64.99
2022-11-07T03:34:49.542Z,64.98
2022-11-07T03:37:37.480Z,65.30
2022-11-07T03:40:24.881Z,65.03
2022-11-07T03:43:12.829Z,65.36
2022-11-07T03:46:00.905Z,65.16
2022-11-07T03:48:49.961Z,65.33
2022-11-07T03:51:37.668Z,65.39
2022-11-07T03:54:24.912Z,65.26
2022-11-07T03:57:12.614Z,65.36
2022-11-07T04:00:00.354Z,65.48
2022-11-07T04:02:47.869Z,65.40
2022-11-07T04:05:36.838Z,65.49
2022-11-07T04:08:24.559Z,65.23
2022-11-07T04:11:32.862Z,65.65
2022-11-07T04:14:37.657Z,65.57
2022-11-07T04:17:25.952Z,65.46
2022-11-07T04:20:13.684Z,65.81
2022-11-07T04:23:02.713Z,65.80
2022-11-07T04:26:07.491Z,65.68
2022-11-07T04:28:55.012Z,65.54
2022-11-07T04:31:42.611Z,65.47
2022-11-07T04:34:30.265Z,65.90
2022-11-07T04:37:18.183Z,65.65
2022-11-07T04:40:11.243Z,65.75
2022-11-07T04:42:59.341Z,65.82
2022-11-07T04:45:46.904Z,65.79
2022-11-07T04:48:34.477Z,65.59
2022-11-07T04:51:24.644Z,65.80
2022-11-07T04:54:14.443Z,65.51
2022-11-07T04:57:03.217Z,65.63
2022-11-07T04:59:50.475Z,65.78
2022-11-07T05:02:38.149Z,65.86
2022-11-07T05:05:26.065Z,65.79
2022-11-07T05:08:13.808Z,65.90
2022-11-07T05:11:01.359Z,66.04
2022-11-07T05:13:50.409Z,65.74
2022-11-07T05:16:38.584Z,65.90
2022-11-07T05:19:26.351Z,65.78
2022-11-07T05:22:31.619Z,65.66
2022-11-07T05:25:19.207Z,65.89
2022-11-07T05:28:07.072Z,65.93
2022-11-07T05:30:59.323Z,65.77
2022-11-07T05:33:47.101Z,65.88
2022-11-07T05:36:36.636Z,65.86
2022-11-07T05:39:24.707Z,65.81
2022-11-07T05:42:11.955Z,65.86
2022-11-07T05:44:59.866Z,65.95
2022-11-07T05:48:00.045Z,65.79
2022-11-07T05:50:47.328Z,65.94
2022-11-07T05:53:35.533Z,65.85
2022-11-07T05:56:25.647Z,65.96
2022-11-07T05:59:13.967Z,66.01
2022-11-07T06:02:01.386Z,65.88
2022-11-07T06:04:53.259Z,65.95
2022-11-07T06:07:41.685Z,65.97
2022-11-07T06:10:29.032Z,66.14
2022-11-07T06:13:17.938Z,65.97
2022-11-07T06:16:06.551Z,66.11
2022-11-07T06:18:56.325Z,65.95
2022-11-07T06:21:47.052Z,65.98
2022-11-07T06:24:34.546Z,65.94
2022-11-07T06:27:22.092Z,66.10
2022-11-07T06:30:11.275Z,66.04
2022-11-07T06:33:02.839Z,65.93
2022-11-07T06:35:50.324Z,66.01
2022-11-07T06:38:40.611Z,66.22
2022-11-07T06:41:31.303Z,66.05
2022-11-07T06:44:19.024Z,66.00
2022-11-07T06:47:06.735Z,66.00
2022-11-07T06:49:53.994Z,66.06
2022-11-07T06:52:41.733Z,65.79
2022-11-07T06:55:30.859Z,65.84
2022-11-07T06:58:18.183Z,65.69
2022-11-07T07:01:08.760Z,65.66
2022-11-07T07:03:56.424Z,65.90
2022-11-07T07:06:46.972Z,65.93
2022-11-07T07:09:34.752Z,65.86
2022-11-07T07:12:23.701Z,65.93
2022-11-07T07:15:11.790Z,65.85
2022-11-07T07:18:01.862Z,65.77
2022-11-07T07:20:49.843Z,65.88
2022-11-07T07:23:38.733Z,65.83
2022-11-07T07:26:29.423Z,66.04
2022-11-07T07:29:20.335Z,66.04
2022-11-07T07:32:07.970Z,66.05
2022-11-07T07:34:56.274Z,66.04
2022-11-07T07:37:43.936Z,66.25
2022-11-07T07:40:31.543Z,66.44
2022-11-07T07:43:21.067Z,66.41
2022-11-07T07:46:14.552Z,66.29
2022-11-07T07:49:09.310Z,66.54
2022-11-07T07:51:57.302Z,66.42
2022-11-07T07:54:44.859Z,66.48
2022-11-07T07:57:32.722Z,66.28
2022-11-07T08:00:20.788Z,66.44
2022-11-07T08:03:12.579Z,66.45
2022-11-07T08:06:00.801Z,66.29
2022-11-07T08:08:48.485Z,66.46
2022-11-07T08:11:36.240Z,66.54
2022-11-07T08:14:23.937Z,66.35
2022-11-07T08:17:11.491Z,66.37
2022-11-07T08:20:00.440Z,66.15
2022-11-07T08:22:48.067Z,66.48
2022-11-07T08:25:35.833Z,66.31
2022-11-07T08:28:28.186Z,66.47
2022-11-07T08:31:15.631Z,66.15
2022-11-07T08:34:03.685Z,66.12
2022-11-07T08:36:52.900Z,66.28
2022-11-07T08:39:40.463Z,66.23
2022-11-07T08:42:27.880Z,66.45
2022-11-07T08:45:15.440Z,66.08
2022-11-07T08:48:03.560Z,66.25
2022-11-07T08:50:54.637Z,65.93
2022-11-07T08:53:43.818Z,66.14
2022-11-07T08:56:31.290Z,65.96
2022-11-07T08:59:19.340Z,65.84
2022-11-07T09:05:17.237Z,65.63
2022-11-07T09:08:05.369Z,65.67
2022-11-07T09:10:54.262Z,65.71
2022-11-07T09:13:41.541Z,65.65
2022-11-07T09:16:29.295Z,65.50
2022-11-07T09:19:17.220Z,65.38
2022-11-07T09:22:04.777Z,65.47
2022-11-07T09:24:52.584Z,65.35
2022-11-07T09:27:41.897Z,65.37
2022-11-07T09:30:30.736Z,65.05
2022-11-07T09:33:19.189Z,65.08
2022-11-07T09:36:07.614Z,64.99
2022-11-07T09:38:57.438Z,65.09
2022-11-07T09:41:57.694Z,64.99
2022-11-07T09:44:57.665Z,64.95
2022-11-07T09:47:50.335Z,64.67
2022-11-07T09:50:41.590Z,64.71
2022-11-07T09:53:35.438Z,64.40
2022-11-07T09:56:23.626Z,64.47
2022-11-07T09:59:22.537Z,64.52
2022-11-07T10:02:18.405Z,64.14
2022-11-07T10:05:07.750Z,64.19
2022-11-07T10:08:04.921Z,64.29
2022-11-07T10:10:59.527Z,64.32
2022-11-07T10:14:00.203Z,64.02
2022-11-07T10:17:12.503Z,63.96
2022-11-07T10:20:24.325Z,64.21
2022-11-07T10:23:33.889Z,63.96
2022-11-07T10:26:28.387Z,64.00
2022-11-07T10:29:18.738Z,64.21
2022-11-07T10:32:18.155Z,64.07
2022-11-07T10:35:26.362Z,63.63
2022-11-07T10:38:27.837Z,63.54
2022-11-07T10:41:18.171Z,63.43
2022-11-07T10:44:08.923Z,63.41
2022-11-07T10:46:56.325Z,63.24
2022-11-07T10:49:56.125Z,63.18
2022-11-07T10:52:55.287Z,62.99
2022-11-07T10:55:49.514Z,62.84
2022-11-07T10:58:46.193Z,62.75
2022-11-07T11:01:34.264Z,62.83
2022-11-07T11:04:27.221Z,62.85
2022-11-07T11:07:14.839Z,62.67
2022-11-07T11:10:07.944Z,62.66
2022-11-07T11:12:58.798Z,62.54
2022-11-07T11:15:47.956Z,62.62
2022-11-07T11:18:38.316Z,62.41
2022-11-07T11:21:26.653Z,62.55
2022-11-07T11:24:27.644Z,62.24
2022-11-07T11:27:21.602Z,62.33
2022-11-07T11:30:16.311Z,62.16
2022-11-07T11:33:19.635Z,62.18
2022-11-07T11:36:13.893Z,62.40
2022-11-07T11:39:12.172Z,62.18
2022-11-07T11:42:00.667Z,62.23
2022-11-07T11:44:51.546Z,62.22
2022-11-07T11:47:42.712Z,62.43
2022-11-07T11:50:41.249Z,62.38
2022-11-07T11:53:30.009Z,62.06
2022-11-07T11:56:38.028Z,61.84
2022-11-07T12:00:06.737Z,62.02
2022-11-07T12:03:30.936Z,61.63
2022-11-07T12:06:21.156Z,61.79
2022-11-07T12:09:28.174Z,61.84
2022-11-07T12:12:28.115Z,61.65
2022-11-07T12:15:44.253Z,61.68
2022-11-07T12:18:40.512Z,61.54
2022-11-07T12:21:35.114Z,61.64
2022-11-07T12:24:39.226Z,61.60
2022-11-07T12:27:40.728Z,62.04
2022-11-07T12:30:46.487Z,62.19
2022-11-07T12:33:43.303Z,62.35
2022-11-07T12:36:51.922Z,62.37
2022-11-07T12:40:08.027Z,62.40
2022-11-07T12:43:10.788Z,62.03
2022-11-07T12:46:09.312Z,62.02
2022-11-07T12:49:15.576Z,61.96
2022-11-07T12:52:15.275Z,62.08
2022-11-07T12:55:06.253Z,61.87
2022-11-07T12:57:56.214Z,61.88
2022-11-07T13:00:44.651Z,62.07
2022-11-07T13:03:54.201Z,62.07
2022-11-07T13:06:50.253Z,62.10
2022-11-07T13:09:48.175Z,62.03
2022-11-07T13:12:45.375Z,62.03
2022-11-07T13:15:53.809Z,62.09
2022-11-07T13:18:42.377Z,61.95
2022-11-07T13:21:40.370Z,61.98
2022-11-07T13:24:27.981Z,61.86
2022-11-07T13:27:26.438Z,61.75
2022-11-07T13:30:22.459Z,61.75
2022-11-07T13:33:27.709Z,61.91
2022-11-07T13:36:28.165Z,61.88
2022-11-07T13:39:17.187Z,62.06
2022-11-07T13:42:06.009Z,61.88
2022-11-07T13:44:57.895Z,61.88
2022-11-07T13:47:46.647Z,61.91
2022-11-07T13:50:42.139Z,61.84
2022-11-07T13:53:38.722Z,61.94
2022-11-07T13:56:36.425Z,61.95
2022-11-07T13:59:40.305Z,61.59
2022-11-07T14:02:30.119Z,61.65
2022-11-07T14:05:18.520Z,61.47
2022-11-07T14:08:13.918Z,61.81
2022-11-07T14:11:02.830Z,61.56
2022-11-07T14:13:53.888Z,61.64
2022-11-07T14:16:45.638Z,61.77
2022-11-07T14:19:33.401Z,61.79
2022-11-07T14:22:30.020Z,61.95
2022-11-07T14:25:25.876Z,61.72
2022-11-07T14:28:18.976Z,61.83
2022-11-07T14:31:16.964Z,61.75
2022-11-07T14:34:17.477Z,61.95
2022-11-07T14:37:08.535Z,61.91
2022-11-07T14:39:56.816Z,62.02
2022-11-07T14:42:45.807Z,62.06
2022-11-07T14:48:45.370Z,62.36
2022-11-07T14:51:33.167Z,62.24
2022-11-07T14:54:22.470Z,62.26
2022-11-07T14:57:14.741Z,62.35
2022-11-07T15:00:02.370Z,62.34
2022-11-07T15:02:54.935Z,62.35
2022-11-07T15:05:46.818Z,62.35
2022-11-07T15:08:36.823Z,62.61
2022-11-07T15:11:33.298Z,62.52
2022-11-07T15:14:26.498Z,62.55
2022-11-07T15:17:25.142Z,62.24
2022-11-07T15:20:24.175Z,62.58
2022-11-07T15:23:32.058Z,62.73
2022-11-07T15:26:23.983Z,62.83
2022-11-07T15:29:22.303Z,62.71
2022-11-07T15:32:18.399Z,62.94
2022-11-07T15:35:42.287Z,63.04
2022-11-07T15:38:29.203Z,62.98
2022-11-07T15:41:17.173Z,63.01
2022-11-07T15:44:04.654Z,63.27
2022-11-07T15:46:52.166Z,63.28
2022-11-07T15:49:39.921Z,63.38
2022-11-07T15:52:27.625Z,63.34
2022-11-07T15:55:19.627Z,63.52
2022-11-07T15:58:06.935Z,63.35
2022-11-07T16:00:57.287Z,63.23
2022-11-07T16:03:44.877Z,63.32
2022-11-07T16:06:33.224Z,63.24
2022-11-07T16:09:24.714Z,63.31
2022-11-07T16:12:16.075Z,63.41
2022-11-07T16:15:03.796Z,63.45
2022-11-07T16:17:51.699Z,63.32
2022-11-07T16:20:39.145Z,63.47
2022-11-07T16:23:26.687Z,63.45
2022-11-07T16:26:17.067Z,63.56
2022-11-07T16:29:11.511Z,63.47
2022-11-07T16:31:58.999Z,63.47
2022-11-07T16:34:46.652Z,63.50
2022-11-07T16:37:34.457Z,63.72
2022-11-07T16:40:23.779Z,63.55
2022-11-07T16:43:11.254Z,63.69
2022-11-07T16:46:00.166Z,63.90
2022-11-07T16:48:50.407Z,63.76
2022-11-07T16:51:38.159Z,63.78
2022-11-07T16:54:27.776Z,63.65
2022-11-07T16:57:18.203Z,63.65
2022-11-07T17:00:07.648Z,63.82
2022-11-07T17:02:56.570Z,63.66
2022-11-07T17:05:44.204Z,63.65
2022-11-07T17:08:37.656Z,63.62
2022-11-07T17:11:25.388Z,63.71
2022-11-07T17:14:13.374Z,63.64
2022-11-07T17:17:03.665Z,63.41
2022-11-07T17:19:52.606Z,63.50
2022-11-07T17:22:45.360Z,63.50
2022-11-07T17:25:33.009Z,63.54
2022-11-07T17:28:21.114Z,63.44
2022-11-07T17:31:11.899Z,63.41
2022-11-07T17:33:59.783Z,63.71
2022-11-07T17:36:51.819Z,63.70
2022-11-07T17:39:39.427Z,63.68
2022-11-07T17:42:27.068Z,63.43
2022-11-07T17:45:15.470Z,63.80
2022-11-07T17:48:03.140Z,63.61
2022-11-07T17:50:50.767Z,63.84
2022-11-07T17:53:40.196Z,63.65
2022-11-07T17:56:30.965Z,63.82
2022-11-07T17:59:20.170Z,63.82
2022-11-07T18:02:16.541Z,63.88
2022-11-07T18:05:04.270Z,63.97
2022-11-07T18:07:52.746Z,64.10
2022-11-07T18:10:41.430Z,64.07
2022-11-07T18:13:28.881Z,64.16
2022-11-07T18:16:19.723Z,64.31
2022-11-07T18:19:08.605Z,64.36
2022-11-07T18:21:56.356Z,64.44
2022-11-07T18:24:44.001Z,64.45
2022-11-07T18:27:32.961Z,64.38
2022-11-07T18:30:20.577Z,64.37
2022-11-07T18:33:07.963Z,64.51
2022-11-07T18:35:55.949Z,64.49
2022-11-07T18:38:43.761Z,64.58
2022-11-07T18:41:31.161Z,64.58
2022-11-07T18:44:21.260Z,64.83
2022-11-07T18:47:08.609Z,64.92
2022-11-07T18:49:57.482Z,65.00
2022-11-07T18:52:45.859Z,64.97
2022-11-07T18:55:33.503Z,64.83
2022-11-07T18:58:20.967Z,64.71
2022-11-07T19:01:13.233Z,64.79
2022-11-07T19:04:03.647Z,64.85
2022-11-07T19:06:58.017Z,64.94
2022-11-07T19:09:48.750Z,64.83
2022-11-07T19:12:35.974Z,65.05
2022-11-07T19:15:27.191Z,65.10
2022-11-07T19:18:17.135Z,65.03
2022-11-07T19:21:05.867Z,65.17
2022-11-07T19:23:55.296Z,65.22
2022-11-07T19:26:42.725Z,65.12
2022-11-07T19:29:30.577Z,65.13
2022-11-07T19:32:18.848Z,65.17
2022-11-07T19:35:08.733Z,65.26
2022-11-07T19:37:56.101Z,65.25
2022-11-07T19:40:52.878Z,65.32
2022-11-07T19:43:42.528Z,65.50
2022-11-07T19:46:30.366Z,65.58
2022-11-07T19:49:18.013Z,65.34
2022-11-07T19:52:07.290Z,65.60
2022-11-07T19:54:57.344Z,65.63
2022-11-07T19:57:44.968Z,65.53
2022-11-07T20:00:33.171Z,65.45
2022-11-07T20:03:21.707Z,65.40
2022-11-07T20:06:15.232Z,65.36
2022-11-07T20:09:07.269Z,65.71
2022-11-07T20:11:54.930Z,65.59
2022-11-07T20:14:42.725Z,65.71
2022-11-07T20:17:30.291Z,65.57
2022-11-07T20:20:17.858Z,65.52
2022-11-07T20:23:05.747Z,65.51
2022-11-07T20:25:54.687Z,65.88
2022-11-07T20:28:42.381Z,65.77
2022-11-07T20:31:32.903Z,65.82
2022-11-07T20:34:22.065Z,65.83
2022-11-07T20:37:09.775Z,65.80
2022-11-07T20:39:57.454Z,65.78
2022-11-07T20:42:46.382Z,65.85
2022-11-07T20:45:35.431Z,65.73
2022-11-07T20:48:23.138Z,65.64
2022-11-07T20:51:12.150Z,65.72
2022-11-07T20:54:00.850Z,65.77
2022-11-07T20:56:48.428Z,65.83
2022-11-07T20:59:42.265Z,65.79
2022-11-07T21:02:29.994Z,65.91
2022-11-07T21:05:18.774Z,66.08
2022-11-07T21:08:07.154Z,65.88
2022-11-07T21:10:55.591Z,65.79
2022-11-07T21:13:49.665Z,65.90
2022-11-07T21:16:41.736Z,65.75
2022-11-07T21:19:30.020Z,66.00
2022-11-07T21:22:17.377Z,65.91
2022-11-07T21:25:06.011Z,66.10
2022-11-07T21:27:56.044Z,66.07
2022-11-07T21:30:43.334Z,66.23
2022-11-07T21:33:32.528Z,66.09
2022-11-07T21:36:23.481Z,66.07
2022-11-07T21:39:12.597Z,66.19
2022-11-07T21:42:00.349Z,66.10
2022-11-07T21:44:48.617Z,66.24
2022-11-07T21:47:35.933Z,66.32
2022-11-07T21:50:43.436Z,66.13
2022-11-07T21:53:36.632Z,66.19
2022-11-07T21:56:29.935Z,66.20
2022-11-07T21:59:17.964Z,66.29
2022-11-07T22:02:06.120Z,66.28
2022-11-07T22:04:53.629Z,66.32
2022-11-07T22:07:42.874Z,66.43
2022-11-07T22:10:30.422Z,66.13
2022-11-07T22:13:19.561Z,66.30
2022-11-07T22:16:13.384Z,66.32
2022-11-07T22:19:01.507Z,66.45
2022-11-07T22:21:50.573Z,66.30
2022-11-07T22:24:40.076Z,66.43
2022-11-07T22:27:27.882Z,66.51
2022-11-07T22:30:15.853Z,66.46
2022-11-07T22:33:03.586Z,66.48
2022-11-07T22:35:51.370Z,66.54
2022-11-07T22:38:40.206Z,66.48
2022-11-07T22:41:30.327Z,66.51
2022-11-07T22:44:17.634Z,66.53
2022-11-07T22:47:05.265Z,66.61
2022-11-07T22:49:52.892Z,66.72
2022-11-07T22:52:40.381Z,66.66
2022-11-07T22:55:30.371Z,66.76
2022-11-07T22:58:19.722Z,66.63
2022-11-07T23:01:14.564Z,66.82
2022-11-07T23:04:02.573Z,66.80
2022-11-07T23:06:50.050Z,66.66
2022-11-07T23:09:37.849Z,66.95
2022-11-07T23:12:25.452Z,66.86
2022-11-07T23:15:14.733Z,66.74
2022-11-07T23:18:02.267Z,66.91
2022-11-07T23:21:07.041Z,66.91
2022-11-07T23:23:56.346Z,66.94
2022-11-07T23:26:43.953Z,66.90
2022-11-07T23:29:31.472Z,66.89
2022-11-07T23:32:20.695Z,66.85
2022-11-07T23:35:09.961Z,67.12
2022-11-07T23:37:57.382Z,67.18
2022-11-07T23:40:45.282Z,67.00
2022-11-07T23:43:33.544Z,67.07
2022-11-07T23:46:40.904Z,66.94
2022-11-07T23:49:49.497Z,66.77
2022-11-07T23:52:37.144Z,66.96
2022-11-07T23:55:42.515Z,67.04
2022-11-07T23:58:47.096Z,66.72
